| time (UTC) | temp F | wind direction | speed MPH | gust MPH | rain 1hr in | rain 24hr in | rain mn in | humidity % | barometer mb |
| 20260507200147 | 66 | 323 | 4.0 | 14.0 | 0.01 | 0.01 | 0.01 | 28 | 1003.4 |
| 20260507194642 | 66 | 343 | 4.0 | 16.0 | 0.01 | 0.01 | 0.01 | 30 | 1003.6 |
| 20260507193136 | 66 | 277 | 8.0 | 15.0 | 0.01 | 0.01 | 0.01 | 29 | 1003.6 |
| 20260507191649 | 66 | 278 | 4.0 | 13.0 | 0.00 | 0.00 | 0.00 | 31 | 1003.7 |
| 20260507190147 | 66 | 286 | 4.0 | 12.0 | 0.00 | 0.00 | 0.00 | 31 | 1003.8 |
| 20260507184640 | 66 | 315 | 7.0 | 14.0 | 0.00 | 0.00 | 0.00 | 30 | 1004.0 |
| 20260507183158 | 65 | 253 | 7.0 | 16.0 | 0.00 | 0.00 | 0.00 | 32 | 1004.2 |
| 20260507181713 | 65 | 254 | 5.0 | 17.0 | 0.00 | 0.00 | 0.00 | 34 | 1004.4 |
| 20260507180149 | 65 | 251 | 7.0 | 14.0 | 0.00 | 0.00 | 0.00 | 36 | 1004.4 |
| 20260507174645 | 64 | 237 | 7.0 | 15.0 | 0.00 | 0.00 | 0.00 | 39 | 1004.4 |
| 20260507173136 | 63 | 262 | 3.0 | 13.0 | 0.00 | 0.00 | 0.00 | 46 | 1004.4 |
| 20260507171654 | 64 | 229 | 5.0 | 13.0 | 0.00 | 0.00 | 0.00 | 45 | 1004.4 |
| 20260507170151 | 63 | 267 | 6.0 | 17.0 | 0.00 | 0.00 | 0.00 | 49 | 1004.6 |
| 20260507164649 | 59 | 171 | 2.0 | 10.0 | 0.00 | 0.00 | 0.00 | 62 | 1004.9 |
| 20260507163141 | 60 | 132 | 4.0 | 7.0 | 0.00 | 0.00 | 0.00 | 60 | 1005.0 |
| 20260507161638 | 59 | 263 | 2.0 | 4.0 | 0.00 | 0.00 | 0.00 | 57 | 1005.2 |
| 20260507160156 | 62 | 110 | 3.0 | 9.0 | 0.00 | 0.00 | 0.00 | 51 | 1005.4 |
| 20260507154710 | 62 | 230 | 8.0 | 12.0 | 0.00 | 0.00 | 0.00 | 51 | 1005.4 |
| 20260507153152 | 61 | 264 | 3.0 | 15.0 | 0.00 | 0.00 | 0.00 | 51 | 1005.5 |
| 20260507151648 | 61 | 301 | 5.0 | 13.0 | 0.00 | 0.00 | 0.00 | 48 | 1005.6 |
| 20260507150207 | 61 | 169 | 3.0 | 11.0 | 0.00 | 0.00 | 0.00 | 50 | 1005.9 |
| 20260507144644 | 60 | 261 | 4.0 | 6.0 | 0.00 | 0.00 | 0.00 | 51 | 1006.0 |
| 20260507143136 | 60 | 246 | 5.0 | 12.0 | 0.00 | 0.00 | 0.00 | 52 | 1006.0 |
| 20260507141652 | 59 | 275 | 4.0 | 10.0 | 0.00 | 0.00 | 0.00 | 55 | 1006.0 |
| 20260507140149 | 59 | 250 | 3.0 | 7.0 | 0.00 | 0.00 | 0.00 | 60 | 1006.0 |
| 20260507134645 | 57 | 339 | 2.0 | 12.0 | 0.00 | 0.00 | 0.00 | 60 | 1006.0 |
| 20260507133144 | 56 | 115 | 3.0 | 6.0 | 0.00 | 0.00 | 0.00 | 66 | 1006.1 |
| 20260507131636 | 55 | 24 | 1.0 | 6.0 | 0.00 | 0.00 | 0.00 | 72 | 1006.3 |
| 20260507130153 | 54 | 281 | 2.0 | 9.0 | 0.00 | 0.00 | 0.00 | 77 | 1006.4 |
| 20260507124651 | 52 | 261 | 1.0 | 12.0 | 0.00 | 0.00 | 0.00 | 81 | 1006.6 |
| 20260507123148 | 51 | 5 | 2.0 | 10.0 | 0.00 | 0.00 | 0.00 | 85 | 1006.3 |
| 20260507121646 | 51 | 298 | 2.0 | 6.0 | 0.00 | 0.00 | 0.00 | 87 | 1006.3 |
| 20260507120140 | 50 | 290 | 2.0 | 3.0 | 0.00 | 0.00 | 0.00 | 89 | 1006.4 |
| 20260507114634 | 50 | 229 | 1.0 | 3.0 | 0.00 | 0.00 | 0.00 | 90 | 1006.4 |
| 20260507113214 | 50 | 318 | 1.0 | 3.0 | 0.00 | 0.00 | 0.00 | 90 | 1006.0 |
| 20260507111711 | 50 | 315 | 1.0 | 4.0 | 0.00 | 0.00 | 0.00 | 90 | 1006.0 |
| 20260507110148 | 50 | 287 | 0.0 | 3.0 | 0.00 | 0.00 | 0.00 | 90 | 1006.0 |
| 20260507104647 | 50 | 227 | 0.0 | 2.0 | 0.00 | 0.00 | 0.00 | 90 | 1006.4 |
| 20260507103145 | 50 | 269 | 1.0 | 3.0 | 0.00 | 0.00 | 0.00 | 90 | 1005.9 |
| 20260507101642 | 50 | 283 | 0.0 | 7.0 | 0.00 | 0.00 | 0.00 | 90 | 1006.0 |
| 20260507100134 | 50 | 295 | 0.0 | 6.0 | 0.00 | 0.00 | 0.00 | 90 | 1005.6 |
| 20260507094652 | 51 | 250 | 0.0 | 9.0 | 0.00 | 0.00 | 0.00 | 89 | 1005.7 |
| 20260507093152 | 51 | 344 | 3.0 | 9.0 | 0.00 | 0.00 | 0.00 | 89 | 1005.4 |
| 20260507091650 | 52 | 313 | 1.0 | 10.0 | 0.00 | 0.00 | 0.00 | 88 | 1005.6 |
| 20260507090147 | 53 | 310 | 2.0 | 7.0 | 0.00 | 0.00 | 0.00 | 88 | 1005.6 |
| 20260507084645 | 53 | 191 | 1.0 | 4.0 | 0.00 | 0.00 | 0.00 | 88 | 1005.4 |
| 20260507083142 | 54 | 262 | 1.0 | 4.0 | 0.00 | 0.00 | 0.00 | 86 | 1005.4 |
| 20260507081641 | 54 | 309 | 2.0 | 10.0 | 0.00 | 0.00 | 0.00 | 84 | 1005.7 |
| 20260507080133 | 54 | 271 | 2.0 | 12.0 | 0.00 | 0.00 | 0.00 | 83 | 1005.0 |
| 20260507074712 | 55 | 292 | 1.0 | 8.0 | 0.00 | 0.00 | 0.00 | 82 | 1005.2 |
| 20260507073148 | 55 | 348 | 1.0 | 9.0 | 0.00 | 0.00 | 0.00 | 83 | 1004.6 |
| 20260507071639 | 55 | 291 | 2.0 | 5.0 | 0.00 | 0.00 | 0.00 | 84 | 1004.7 |
| 20260507070134 | 56 | 231 | 2.0 | 7.0 | 0.00 | 0.00 | 0.00 | 83 | 1004.7 |
| 20260507064651 | 56 | 227 | 1.0 | 9.0 | 0.00 | 0.00 | 0.00 | 81 | 1004.7 |
| 20260507063151 | 56 | 252 | 3.0 | 12.0 | 0.00 | 0.00 | 0.00 | 83 | 1004.5 |
| 20260507061648 | 57 | 303 | 2.0 | 6.0 | 0.00 | 0.00 | 0.00 | 88 | 1004.4 |
| 20260507060146 | 58 | 332 | 0.0 | 7.0 | 0.00 | 0.00 | 0.00 | 88 | 1004.6 |
| 20260507054640 | 58 | 273 | 6.0 | 10.0 | 0.00 | 0.00 | 0.00 | 88 | 1004.9 |
| 20260507053134 | 58 | 261 | 2.0 | 6.0 | 0.00 | 0.00 | 0.00 | 89 | 1004.5 |
| 20260507051652 | 59 | 319 | 1.0 | 10.0 | 0.00 | 0.00 | 0.00 | 90 | 1004.8 |
| 20260507050150 | 60 | 291 | 5.0 | 16.0 | 0.00 | 0.00 | 0.00 | 93 | 1004.5 |
| 20260507044705 | 60 | 282 | 1.0 | 7.0 | 0.00 | 0.00 | 0.00 | 94 | 1004.3 |
| 20260507043140 | 60 | 263 | 3.0 | 5.0 | 0.00 | 0.00 | 0.00 | 95 | 1004.3 |
| 20260507041634 | 60 | 234 | 3.0 | 6.0 | 0.00 | 0.00 | 0.00 | 95 | 1004.6 |
| 20260507040152 | 60 | 247 | 7.0 | 11.0 | 0.00 | 0.00 | 0.00 | 95 | 1004.8 |
| 20260507034706 | 58 | 231 | 6.0 | 10.0 | 0.00 | 0.00 | 0.00 | 95 | 1004.4 |
| 20260507033137 | 57 | 219 | 4.0 | 8.0 | 0.00 | 0.00 | 0.00 | 94 | 1004.4 |
| 20260507031652 | 56 | 228 | 4.0 | 8.0 | 0.00 | 0.00 | 0.00 | 94 | 1004.2 |
| 20260507030151 | 57 | 163 | 3.0 | 9.0 | 0.00 | 0.00 | 0.00 | 94 | 1004.0 |
| 20260507024648 | 56 | 216 | 5.0 | 10.0 | 0.00 | 0.00 | 0.00 | 94 | 1004.3 |
| 20260507023147 | 57 | 210 | 4.0 | 10.0 | 0.00 | 0.00 | 0.00 | 94 | 1004.3 |
| 20260507021645 | 57 | 209 | 4.0 | 10.0 | 0.00 | 0.00 | 0.00 | 94 | 1004.2 |
| 20260507020146 | 57 | 176 | 3.0 | 8.0 | 0.00 | 0.00 | 0.00 | 94 | 1004.3 |
| 20260507014639 | 57 | 263 | 3.0 | 3.0 | 0.00 | 0.00 | 0.00 | 94 | 1004.4 |
| 20260507013132 | 0 | 0.0 | 0.0 | 0.00 | 0.00 | 0.00 | -0.1 | ||
| 20260507011709 | 0 | 0.0 | 0.0 | 0.00 | 0.00 | 0.00 | -0.1 | ||
| 20260507010144 | 0 | 0.0 | 0.0 | 0.00 | 0.00 | 0.00 | -0.1 | ||
| 20260507004637 | 0 | 0.0 | 0.0 | 0.00 | 0.00 | 0.00 | -0.1 | ||
| 20260507003154 | 0 | 0.0 | 0.0 | 0.00 | 0.00 | 0.00 | -0.1 | ||
| 20260507001649 | 0 | 0.0 | 0.0 | 0.00 | 0.00 | 0.00 | -0.1 | ||
| 20260507000147 | 0 | 0.0 | 0.0 | 0.00 | 0.00 | 0.00 | -0.1 | ||
| 20260506234648 | 0 | 0.0 | 0.0 | 0.00 | 0.00 | 0.00 | -0.1 | ||
| 20260506233144 | 0 | 0.0 | 0.0 | 0.00 | 0.00 | 0.00 | -0.1 | ||
| 20260506231640 | 0 | 0.0 | 0.0 | 0.00 | 0.00 | 0.00 | -0.1 | ||
| 20260506230133 | 0 | 0.0 | 0.0 | 0.00 | 0.00 | 0.00 | -0.1 | ||
| 20260506224651 | 0 | 0.0 | 0.0 | 0.00 | 0.00 | 0.00 | -0.1 | ||
| 20260506223147 | 0 | 0.0 | 0.0 | 0.00 | 0.00 | 0.00 | -0.1 | ||
| 20260506221644 | 0 | 0.0 | 0.0 | 0.00 | 0.00 | 0.00 | -0.1 | ||
| 20260506220140 | 0 | 0.0 | 0.0 | 0.00 | 0.00 | 0.00 | -0.1 | ||
| 20260506214633 | 0 | 0.0 | 0.0 | 0.00 | 0.00 | 0.00 | -0.1 | ||
| 20260506213149 | 0 | 0.0 | 0.0 | 0.00 | 0.00 | 0.00 | -0.1 | ||
| 20260506211645 | 0 | 0.0 | 0.0 | 0.00 | 0.00 | 0.00 | -0.1 | ||
| 20260506210053 | 0 | 0.0 | 0.0 | 0.00 | 0.00 | 0.00 | -0.1 |